DTTX

Details ICAO DTTX (SFA)
Name THYNA
Region Tunisia
Timezone Africa/Tunis (UTC+1.0)
Plans Departing 15
Arriving 13
Stats Elevation 85 ft / 26 m (AMSL)
Location 34.717558° 10.690831°
Runways 1
Magnetic Variation 2.404° E
Sunrise 2018-05-21 04:11:49 UTC / 2018-05-21 05:11:49 Local
Sunset 2018-05-21 18:18:41 UTC / 2018-05-21 19:18:41 Local
Advertisement - Login to hide

Runways

ID Width Length Bearing (true) Bearing (mag) Surface Threshold Offset Overrun Length
15 148 ft / 45 m 9,874 ft / 3,010 m 148.10° 145.70° Concrete 0 ft / 0 m 197 ft / 60 m
33 148 ft / 45 m 9,874 ft / 3,010 m 328.11° 325.71° Concrete 0 ft / 0 m 197 ft / 60 m

Map

Weather


0- 5 10 15 20 25 30 35+ Temperature / ° C

Clouds and Precipitation
Forecast for 2018-05-21 18:00 UTC. Updated 24 minutes ago

Ground ~20,000 ft ~40,000 ft Winds

METAR

DTTX 211500Z 07010KT 360V100 9999 SCT020 23/16 Q1008 NOSIG

TAF

TAF DTTX 211100Z 2112/2212 10010KT 9999 SCT020

Frequencies

Tower 120.15 MHz SFAX TWR
Approach 123.70 MHz SFAX APP
Warning: Do not use this data for real-world aviation or navigation. No guarantee of current accuracy is given.